Time;durP1;ratioP1;P1;durP2;ratioP2;P2;SDS_P1;SDS_P2;PMS_P1;PMS_P2;Temp;Humidity;BMP_temperature;BMP_pressure;BME280_temperature;BME280_humidity;BME280_pressure;Samples;Min_cycle;Max_cycle;Signal;HPM_P1;HPM_P2
2023/05/12 00:01:20;;;;;;;;;;;14.50;98.90;;;;;;5045917;28;20309;-69
2023/05/12 00:03:46;;;;;;;;;;;14.50;98.60;;;;;;5045556;28;19944;-69
2023/05/12 00:06:11;;;;;;;;;;;14.50;98.60;;;;;;5045878;28;19912;-69
2023/05/12 00:08:37;;;;;;;;;;;14.50;98.70;;;;;;5045786;28;19913;-69
2023/05/12 00:11:02;;;;;;;;;;;14.50;98.70;;;;;;5114208;27;19909;-69
2023/05/12 00:13:28;;;;;;;;;;;14.50;98.70;;;;;;5045567;28;19913;-70
2023/05/12 00:15:55;;;;;;;;;;;14.60;98.70;;;;;;5114151;27;19915;-70
2023/05/12 00:18:21;;;;;;;;;;;14.60;98.60;;;;;;5037464;28;19917;-70
2023/05/12 00:20:47;;;;;;;;;;;14.50;98.70;;;;;;5045056;28;19913;-70
2023/05/12 00:23:12;;;;;;;;;;;14.50;98.70;;;;;;5045495;28;19919;-69
2023/05/12 00:25:38;;;;;;;;;;;14.50;98.70;;;;;;5045445;28;20021;-69
2023/05/12 00:28:04;;;;;;;;;;;14.50;98.70;;;;;;5027770;28;19909;-70
2023/05/12 00:30:29;;;;;;;;;;;14.50;98.80;;;;;;5045505;28;19913;-69
2023/05/12 00:32:55;;;;;;;;;;;14.50;98.80;;;;;;5045236;28;20429;-70
2023/05/12 00:35:20;;;;;;;;;;;14.50;98.70;;;;;;5045245;28;20366;-70
2023/05/12 00:37:46;;;;;;;;;;;14.50;98.70;;;;;;5045354;28;19952;-70
2023/05/12 00:40:11;;;;;;;;;;;14.50;98.60;;;;;;5045326;28;19931;-70
2023/05/12 00:42:37;;;;;;;;;;;14.50;98.70;;;;;;5044997;28;20027;-70
2023/05/12 00:45:03;;;;;;;;;;;14.50;98.70;;;;;;5045183;28;19921;-70
2023/05/12 00:47:29;;;;;;;;;;;14.50;98.70;;;;;;5045519;28;19916;-70
2023/05/12 00:49:55;;;;;;;;;;;14.50;98.70;;;;;;5045141;28;19913;-69
2023/05/12 00:52:20;;;;;;;;;;;14.50;98.80;;;;;;5027325;28;20744;-70
2023/05/12 00:54:47;;;;;;;;;;;14.50;98.70;;;;;;5045281;28;19909;-69
2023/05/12 00:57:12;;;;;;;;;;;14.50;98.60;;;;;;5045140;28;19946;-70
2023/05/12 00:59:38;;;;;;;;;;;14.50;98.60;;;;;;5045066;28;19920;-70
2023/05/12 01:02:04;;;;;;;;;;;14.50;98.60;;;;;;5045052;28;19955;-70
2023/05/12 01:04:31;;;;;;;;;;;14.40;98.60;;;;;;5044975;28;20338;-70
2023/05/12 01:06:58;;;;;;;;;;;14.40;98.60;;;;;;5045193;28;20321;-70
2023/05/12 01:09:25;;;;;;;;;;;14.40;98.60;;;;;;5045125;28;19919;-70
2023/05/12 01:11:51;;;;;;;;;;;14.50;98.60;;;;;;5044987;28;19940;-70
2023/05/12 01:14:16;;;;;;;;;;;14.50;98.70;;;;;;5044994;28;20408;-70
2023/05/12 01:16:50;;;;;;;;;;;14.50;98.70;;;;;;5043321;28;20012;-70
2023/05/12 01:19:41;;;;;;;;;;;14.40;98.60;;;;;;5036729;28;19917;-70
2023/05/12 01:22:08;;;;;;;;;;;14.40;98.60;;;;;;5028535;28;19923;-70
2023/05/12 01:24:37;;;;;;;;;;;14.40;98.60;;;;;;5045151;28;19915;-70
2023/05/12 01:27:03;;;;;;;;;;;14.40;98.60;;;;;;5045870;28;19952;-70
2023/05/12 01:29:29;;;;;;;;;;;14.40;98.60;;;;;;5048300;28;20524;-70
2023/05/12 01:31:55;;;;;;;;;;;14.40;98.50;;;;;;5048157;28;19919;-70
2023/05/12 01:34:20;;;;;;;;;;;14.40;98.60;;;;;;5048286;28;19981;-70
2023/05/12 01:36:46;;;;;;;;;;;14.40;98.50;;;;;;5048312;28;19953;-70
2023/05/12 01:39:11;;;;;;;;;;;14.40;98.60;;;;;;5048216;28;19956;-70
2023/05/12 01:41:37;;;;;;;;;;;14.40;98.40;;;;;;5048357;28;20390;-70
2023/05/12 01:44:03;;;;;;;;;;;14.40;98.60;;;;;;5047857;28;19953;-70
2023/05/12 01:46:28;;;;;;;;;;;14.40;98.60;;;;;;5047883;28;19913;-70
2023/05/12 01:48:54;;;;;;;;;;;14.40;98.60;;;;;;5047689;28;19992;-70
2023/05/12 01:51:19;;;;;;;;;;;14.40;98.60;;;;;;5047765;28;19917;-70
2023/05/12 01:53:45;;;;;;;;;;;14.40;98.60;;;;;;5047584;28;19920;-70
2023/05/12 01:56:10;;;;;;;;;;;14.40;98.50;;;;;;5048030;28;20434;-70
2023/05/12 01:58:36;;;;;;;;;;;14.40;98.60;;;;;;5047954;28;19917;-70
2023/05/12 02:01:02;;;;;;;;;;;14.30;98.60;;;;;;5047882;28;20442;-70
2023/05/12 02:03:27;;;;;;;;;;;14.30;98.60;;;;;;5046907;28;20328;-70
2023/05/12 02:05:52;;;;;;;;;;;14.30;98.60;;;;;;5046683;28;20003;-70
2023/05/12 02:08:18;;;;;;;;;;;14.30;98.60;;;;;;5046643;28;19913;-70
2023/05/12 02:10:44;;;;;;;;;;;14.30;98.60;;;;;;5046397;28;20629;-70
2023/05/12 02:13:09;;;;;;;;;;;14.30;98.60;;;;;;5047444;27;20537;-70
2023/05/12 02:15:35;;;;;;;;;;;14.30;98.60;;;;;;5047518;28;20328;-70
2023/05/12 02:18:02;;;;;;;;;;;14.30;98.60;;;;;;5095093;27;19916;-70
2023/05/12 02:20:28;;;;;;;;;;;14.30;98.60;;;;;;5046761;28;19912;-70
2023/05/12 02:22:54;;;;;;;;;;;14.30;98.60;;;;;;5047142;28;19921;-70
2023/05/12 02:25:20;;;;;;;;;;;14.30;98.70;;;;;;5046949;28;19920;-70
2023/05/12 02:27:45;;;;;;;;;;;14.30;98.60;;;;;;5047424;28;19971;-70
2023/05/12 02:30:11;;;;;;;;;;;14.20;98.60;;;;;;5047221;28;20373;-70
2023/05/12 02:32:36;;;;;;;;;;;14.20;98.60;;;;;;5047118;28;20536;-70
2023/05/12 02:35:02;;;;;;;;;;;14.20;98.60;;;;;;5047021;28;19916;-70
2023/05/12 02:37:28;;;;;;;;;;;14.20;98.70;;;;;;5046827;28;20494;-70
2023/05/12 02:39:53;;;;;;;;;;;14.20;98.60;;;;;;5045708;28;19924;-70
2023/05/12 02:42:18;;;;;;;;;;;14.20;98.60;;;;;;5046635;28;20360;-70
2023/05/12 02:44:44;;;;;;;;;;;14.20;98.60;;;;;;5046840;28;20430;-70
2023/05/12 02:47:09;;;;;;;;;;;14.20;98.60;;;;;;5046853;28;19913;-70
2023/05/12 02:49:35;;;;;;;;;;;14.10;98.70;;;;;;5046941;28;19917;-69
2023/05/12 02:52:00;;;;;;;;;;;14.10;98.60;;;;;;5046408;28;20376;-70
2023/05/12 02:54:26;;;;;;;;;;;14.10;98.80;;;;;;5046826;28;20015;-70
2023/05/12 02:56:52;;;;;;;;;;;14.10;98.80;;;;;;5046534;28;19960;-70
2023/05/12 02:59:17;;;;;;;;;;;14.10;98.80;;;;;;5046588;28;19940;-70
2023/05/12 03:01:43;;;;;;;;;;;14.10;98.70;;;;;;5046750;28;19995;-70
2023/05/12 03:04:08;;;;;;;;;;;14.10;98.70;;;;;;5046553;28;19920;-70
2023/05/12 03:06:34;;;;;;;;;;;14.00;98.90;;;;;;5046322;28;19909;-70
2023/05/12 03:08:59;;;;;;;;;;;14.10;98.90;;;;;;5114876;27;20015;-70
2023/05/12 03:11:25;;;;;;;;;;;14.00;98.90;;;;;;5046414;28;19956;-70
2023/05/12 03:13:51;;;;;;;;;;;14.00;99.10;;;;;;5046114;28;20714;-70
2023/05/12 03:16:17;;;;;;;;;;;14.00;99.40;;;;;;5074284;27;19909;-69
2023/05/12 03:18:42;;;;;;;;;;;14.00;99.00;;;;;;5028158;28;19913;-70
2023/05/12 03:21:08;;;;;;;;;;;14.00;99.00;;;;;;5045927;28;19923;-69
2023/05/12 03:23:34;;;;;;;;;;;14.00;99.10;;;;;;5046130;28;20258;-69
2023/05/12 03:26:00;;;;;;;;;;;14.00;99.00;;;;;;5046193;28;19916;-69
2023/05/12 03:28:25;;;;;;;;;;;14.00;98.90;;;;;;5046368;28;19955;-70
2023/05/12 03:30:51;;;;;;;;;;;13.90;99.10;;;;;;5028246;28;19975;-70
2023/05/12 03:33:16;;;;;;;;;;;13.90;98.90;;;;;;5046212;28;19909;-70
2023/05/12 03:35:42;;;;;;;;;;;13.90;98.90;;;;;;5046122;28;19961;-70
2023/05/12 03:38:07;;;;;;;;;;;13.90;98.70;;;;;;5088727;27;20420;-70
2023/05/12 03:40:33;;;;;;;;;;;13.90;98.70;;;;;;5046274;28;19969;-70
2023/05/12 03:42:58;;;;;;;;;;;13.90;99.00;;;;;;5046674;28;20381;-69
2023/05/12 03:45:24;;;;;;;;;;;13.90;98.90;;;;;;5046343;28;19956;-70
2023/05/12 03:47:49;;;;;;;;;;;13.90;98.90;;;;;;5045884;28;19909;-70
2023/05/12 03:50:15;;;;;;;;;;;13.90;98.90;;;;;;5045483;28;19954;-70
2023/05/12 03:52:40;;;;;;;;;;;13.90;99.20;;;;;;5045758;28;19913;-70
2023/05/12 03:55:06;;;;;;;;;;;13.80;99.30;;;;;;5045857;28;19958;-70
2023/05/12 03:57:33;;;;;;;;;;;13.90;99.10;;;;;;5045810;28;20349;-70
2023/05/12 03:59:59;;;;;;;;;;;13.80;99.20;;;;;;5028080;28;19916;-70
2023/05/12 04:02:25;;;;;;;;;;;13.80;99.30;;;;;;5045703;28;20017;-70
2023/05/12 04:04:50;;;;;;;;;;;13.80;99.20;;;;;;5045785;28;19913;-70
2023/05/12 04:07:16;;;;;;;;;;;13.80;99.10;;;;;;5045821;28;19913;-70
2023/05/12 04:09:42;;;;;;;;;;;13.80;99.20;;;;;;5114277;27;19913;-69
2023/05/12 04:12:08;;;;;;;;;;;13.80;99.10;;;;;;5045258;28;19948;-69
2023/05/12 04:14:34;;;;;;;;;;;13.80;98.90;;;;;;5045355;28;19913;-70
2023/05/12 04:16:59;;;;;;;;;;;13.80;99.00;;;;;;5114358;27;19920;-70
2023/05/12 04:19:25;;;;;;;;;;;13.80;99.20;;;;;;5044793;28;19913;-70
2023/05/12 04:21:50;;;;;;;;;;;13.80;99.10;;;;;;5045028;28;20113;-70
2023/05/12 04:24:16;;;;;;;;;;;13.80;99.10;;;;;;5045259;28;19912;-70
2023/05/12 04:26:42;;;;;;;;;;;13.80;99.10;;;;;;5045427;28;20015;-69
2023/05/12 04:29:07;;;;;;;;;;;13.80;99.00;;;;;;5045226;28;20008;-69
2023/05/12 04:31:33;;;;;;;;;;;13.80;98.90;;;;;;5045415;28;19986;-70
2023/05/12 04:33:58;;;;;;;;;;;13.80;99.00;;;;;;5045092;28;19961;-70
2023/05/12 04:36:24;;;;;;;;;;;13.70;99.10;;;;;;5027351;28;19936;-69
2023/05/12 04:38:50;;;;;;;;;;;13.80;99.00;;;;;;5045111;28;20445;-69
2023/05/12 04:41:15;;;;;;;;;;;13.80;99.20;;;;;;5045362;28;19916;-70
2023/05/12 04:43:41;;;;;;;;;;;13.70;98.90;;;;;;5045443;28;19953;-70
2023/05/12 04:46:06;;;;;;;;;;;13.80;98.70;;;;;;5045367;28;19909;-70
2023/05/12 04:48:32;;;;;;;;;;;13.70;98.70;;;;;;5045101;28;19955;-70
2023/05/12 04:50:58;;;;;;;;;;;13.70;98.80;;;;;;5044000;28;19913;-70
2023/05/12 04:53:24;;;;;;;;;;;13.70;98.80;;;;;;5044102;28;19909;-70
2023/05/12 04:55:50;;;;;;;;;;;13.80;98.80;;;;;;5044244;28;19947;-70
2023/05/12 04:58:15;;;;;;;;;;;13.70;99.00;;;;;;5043678;28;20004;-70
2023/05/12 05:00:41;;;;;;;;;;;13.70;98.90;;;;;;5044627;28;19930;-70
2023/05/12 05:03:06;;;;;;;;;;;13.80;98.80;;;;;;5047300;28;19952;-70
2023/05/12 05:05:32;;;;;;;;;;;13.80;99.00;;;;;;5048025;28;20285;-70
2023/05/12 05:07:57;;;;;;;;;;;13.80;99.00;;;;;;5048363;28;19999;-69
2023/05/12 05:10:23;;;;;;;;;;;13.80;99.10;;;;;;5048022;28;19947;-69
2023/05/12 05:12:48;;;;;;;;;;;13.80;99.20;;;;;;5048133;28;20549;-69
2023/05/12 05:15:14;;;;;;;;;;;13.80;98.90;;;;;;5047685;28;19954;-70
2023/05/12 05:17:41;;;;;;;;;;;13.80;99.00;;;;;;5047712;28;19920;-70
2023/05/12 05:20:07;;;;;;;;;;;13.80;99.10;;;;;;5047736;28;19960;-70
2023/05/12 05:22:33;;;;;;;;;;;13.80;99.00;;;;;;5047650;28;19948;-69
2023/05/12 05:24:58;;;;;;;;;;;13.80;99.00;;;;;;5047970;28;19920;-70
2023/05/12 05:27:26;;;;;;;;;;;13.80;99.00;;;;;;5029776;28;20301;-70
2023/05/12 05:29:51;;;;;;;;;;;13.80;99.00;;;;;;5047884;28;20011;-70
2023/05/12 05:32:17;;;;;;;;;;;13.80;99.00;;;;;;5047734;28;19909;-70
2023/05/12 05:34:42;;;;;;;;;;;13.80;99.10;;;;;;5047836;28;19909;-70
2023/05/12 05:37:08;;;;;;;;;;;13.80;99.10;;;;;;5047750;28;20392;-69
2023/05/12 05:39:33;;;;;;;;;;;13.80;99.10;;;;;;5048017;28;20000;-70
2023/05/12 05:41:59;;;;;;;;;;;13.90;99.00;;;;;;5046190;28;20005;-70
2023/05/12 05:44:24;;;;;;;;;;;13.90;99.00;;;;;;5030144;28;19909;-70
2023/05/12 05:46:50;;;;;;;;;;;13.90;99.10;;;;;;5047801;28;19951;-70
2023/05/12 05:49:15;;;;;;;;;;;13.90;99.10;;;;;;5029644;28;20024;-70
2023/05/12 05:51:41;;;;;;;;;;;13.90;99.10;;;;;;5047516;28;19912;-70
2023/05/12 05:54:06;;;;;;;;;;;13.90;99.20;;;;;;5047572;28;19961;-70
2023/05/12 05:56:34;;;;;;;;;;;13.90;99.00;;;;;;5029768;28;20327;-70
2023/05/12 05:59:02;;;;;;;;;;;13.90;99.00;;;;;;5047413;28;19917;-70
2023/05/12 06:01:27;;;;;;;;;;;13.90;99.10;;;;;;5047755;28;20355;-70
2023/05/12 06:03:53;;;;;;;;;;;13.90;98.90;;;;;;5047443;28;19913;-70
2023/05/12 06:06:18;;;;;;;;;;;14.00;99.30;;;;;;5047503;28;19916;-70
2023/05/12 06:08:44;;;;;;;;;;;14.00;99.00;;;;;;5029502;28;19957;-70
2023/05/12 06:11:10;;;;;;;;;;;14.00;98.90;;;;;;5047608;28;20452;-69
2023/05/12 06:13:36;;;;;;;;;;;14.00;98.90;;;;;;5046936;28;19978;-69
2023/05/12 06:16:02;;;;;;;;;;;14.10;98.90;;;;;;5047469;28;19940;-69
2023/05/12 06:18:27;;;;;;;;;;;14.00;98.90;;;;;;5028960;28;19916;-70
2023/05/12 06:20:53;;;;;;;;;;;14.00;98.80;;;;;;5046597;28;20127;-70
2023/05/12 06:23:18;;;;;;;;;;;14.10;98.80;;;;;;5046955;28;19912;-69
2023/05/12 06:25:43;;;;;;;;;;;14.10;98.90;;;;;;5046925;28;19981;-70
2023/05/12 06:28:09;;;;;;;;;;;14.10;98.80;;;;;;5047301;28;20576;-70
2023/05/12 06:30:35;;;;;;;;;;;14.10;98.70;;;;;;5047261;28;20000;-69
2023/05/12 06:33:00;;;;;;;;;;;14.10;98.70;;;;;;5047072;28;19913;-70
2023/05/12 06:35:26;;;;;;;;;;;14.20;98.70;;;;;;5046791;28;19941;-69
2023/05/12 06:37:51;;;;;;;;;;;14.10;98.70;;;;;;5046834;28;19966;-69
2023/05/12 06:40:17;;;;;;;;;;;14.20;98.70;;;;;;5046633;28;20349;-69
2023/05/12 06:42:43;;;;;;;;;;;14.20;98.70;;;;;;5046482;28;19920;-69
2023/05/12 06:45:10;;;;;;;;;;;14.20;98.80;;;;;;5046698;28;19980;-69
2023/05/12 06:47:35;;;;;;;;;;;14.20;98.70;;;;;;5046966;28;19912;-69
2023/05/12 06:50:01;;;;;;;;;;;14.20;98.70;;;;;;5046376;28;20045;-69
2023/05/12 06:52:26;;;;;;;;;;;14.20;98.70;;;;;;5046467;28;20313;-69
2023/05/12 06:54:52;;;;;;;;;;;14.20;98.70;;;;;;5046448;28;20373;-69
2023/05/12 06:57:17;;;;;;;;;;;14.20;98.80;;;;;;5046604;28;20622;-69
2023/05/12 06:59:43;;;;;;;;;;;14.20;98.80;;;;;;5046595;28;19913;-69
2023/05/12 07:02:08;;;;;;;;;;;14.20;98.80;;;;;;5046506;28;19920;-70
2023/05/12 07:04:35;;;;;;;;;;;14.20;98.80;;;;;;5046465;28;20007;-70
2023/05/12 07:07:00;;;;;;;;;;;14.20;98.80;;;;;;5045903;28;20013;-70
2023/05/12 07:09:25;;;;;;;;;;;14.20;98.80;;;;;;5045649;28;19920;-69
2023/05/12 07:11:51;;;;;;;;;;;14.20;98.80;;;;;;5046089;28;19917;-70
2023/05/12 07:14:17;;;;;;;;;;;14.20;98.80;;;;;;5045429;28;19957;-69
2023/05/12 07:16:43;;;;;;;;;;;14.20;98.90;;;;;;5045232;28;20463;-69
2023/05/12 07:19:08;;;;;;;;;;;14.20;98.90;;;;;;5044862;28;20699;-69
2023/05/12 07:21:35;;;;;;;;;;;14.20;98.90;;;;;;5044799;27;19936;-69
2023/05/12 07:24:00;;;;;;;;;;;14.20;98.80;;;;;;5029021;28;19964;-70
2023/05/12 07:26:28;;;;;;;;;;;14.20;98.80;;;;;;5044550;28;20004;-69
2023/05/12 07:28:53;;;;;;;;;;;14.20;98.90;;;;;;5045691;28;20472;-69
2023/05/12 07:31:19;;;;;;;;;;;14.20;98.90;;;;;;5046119;28;19909;-69
2023/05/12 07:33:44;;;;;;;;;;;14.20;98.90;;;;;;5046100;28;19912;-70
2023/05/12 07:36:10;;;;;;;;;;;14.20;99.00;;;;;;5046106;28;20389;-69
2023/05/12 07:38:35;;;;;;;;;;;14.30;99.00;;;;;;5045493;28;19917;-69
2023/05/12 07:41:02;;;;;;;;;;;14.30;98.90;;;;;;5045254;28;19952;-69
2023/05/12 07:43:28;;;;;;;;;;;14.30;99.00;;;;;;5045144;28;19916;-70
2023/05/12 07:45:54;;;;;;;;;;;14.30;99.10;;;;;;5045385;28;19908;-70
2023/05/12 07:48:20;;;;;;;;;;;14.40;98.90;;;;;;5046065;28;19921;-69
2023/05/12 07:50:46;;;;;;;;;;;14.40;98.80;;;;;;5045789;28;19913;-69
2023/05/12 07:53:11;;;;;;;;;;;14.40;98.70;;;;;;5045736;28;19916;-69
2023/05/12 07:55:37;;;;;;;;;;;14.40;98.70;;;;;;5045618;28;20419;-70
2023/05/12 07:58:02;;;;;;;;;;;14.50;98.70;;;;;;5045836;28;20019;-69
2023/05/12 08:00:28;;;;;;;;;;;14.50;98.70;;;;;;5045935;28;19912;-69
2023/05/12 08:02:53;;;;;;;;;;;14.50;98.70;;;;;;5045880;28;19912;-70
2023/05/12 08:05:19;;;;;;;;;;;14.50;98.60;;;;;;5045624;28;19909;-70
2023/05/12 08:07:45;;;;;;;;;;;14.60;98.60;;;;;;5071638;27;19915;-69
2023/05/12 08:10:11;;;;;;;;;;;14.60;98.50;;;;;;5113721;27;19956;-70
2023/05/12 08:12:37;;;;;;;;;;;14.70;98.50;;;;;;5045618;28;19909;-69
2023/05/12 08:15:03;;;;;;;;;;;14.70;98.50;;;;;;5046153;28;19909;-69
2023/05/12 08:17:28;;;;;;;;;;;14.70;98.40;;;;;;5045636;28;19924;-69
2023/05/12 08:19:54;;;;;;;;;;;14.70;98.30;;;;;;5044856;28;19909;-69
2023/05/12 08:22:19;;;;;;;;;;;14.80;98.30;;;;;;5045266;28;19920;-69
2023/05/12 08:24:45;;;;;;;;;;;14.80;98.30;;;;;;5045338;28;19913;-69
2023/05/12 08:27:10;;;;;;;;;;;14.80;98.20;;;;;;5045278;28;19913;-69
2023/05/12 08:29:36;;;;;;;;;;;14.90;98.20;;;;;;5045822;28;19920;-70
2023/05/12 08:32:01;;;;;;;;;;;14.90;98.10;;;;;;5045619;28;19913;-70
2023/05/12 08:34:27;;;;;;;;;;;15.00;98.00;;;;;;5045385;28;19920;-70
2023/05/12 08:36:53;;;;;;;;;;;15.00;97.90;;;;;;5047469;28;19915;-69
2023/05/12 08:39:18;;;;;;;;;;;15.10;97.80;;;;;;5048646;28;20008;-70
2023/05/12 08:41:50;;;;;;;;;;;15.10;97.80;;;;;;5048436;28;20266;-70
2023/05/12 08:44:17;;;;;;;;;;;15.20;97.70;;;;;;5030802;28;20001;-70
2023/05/12 08:46:43;;;;;;;;;;;15.20;97.70;;;;;;5048756;28;19935;-70
2023/05/12 08:49:15;;;;;;;;;;;15.30;97.60;;;;;;5048726;28;20380;-70
2023/05/12 08:51:43;;;;;;;;;;;15.30;97.60;;;;;;5044698;28;19918;-70
2023/05/12 08:54:10;;;;;;;;;;;15.30;97.60;;;;;;5040866;28;19916;-70
2023/05/12 08:56:37;;;;;;;;;;;15.40;97.50;;;;;;5046563;28;19922;-70
2023/05/12 08:59:05;;;;;;;;;;;15.40;97.50;;;;;;5047537;28;19950;-70
2023/05/12 09:01:33;;;;;;;;;;;15.40;97.50;;;;;;5048086;28;20361;-70
2023/05/12 09:03:59;;;;;;;;;;;15.50;97.50;;;;;;5047798;28;19912;-70
2023/05/12 09:06:24;;;;;;;;;;;15.50;97.30;;;;;;5047823;28;19936;-70
2023/05/12 09:08:50;;;;;;;;;;;15.60;97.30;;;;;;5047831;28;19912;-70
2023/05/12 09:11:16;;;;;;;;;;;15.60;97.30;;;;;;5047748;28;19913;-70
2023/05/12 09:13:45;;;;;;;;;;;15.70;97.30;;;;;;5040825;28;20016;-70
2023/05/12 09:16:11;;;;;;;;;;;15.80;97.10;;;;;;5047596;28;19917;-70
2023/05/12 09:18:55;;;;;;;;;;;15.80;97.00;;;;;;5032538;28;20250;-70
2023/05/12 09:21:21;;;;;;;;;;;15.80;96.90;;;;;;5044155;28;19920;-70
2023/05/12 09:24:04;;;;;;;;;;;15.90;96.90;;;;;;5041483;28;20278;-71
2023/05/12 09:26:30;;;;;;;;;;;16.00;96.80;;;;;;5044103;28;20664;-71
2023/05/12 09:29:07;;;;;;;;;;;16.00;96.70;;;;;;5047455;28;20396;-70
2023/05/12 09:31:32;;;;;;;;;;;16.10;96.70;;;;;;5045016;28;19991;-70
2023/05/12 09:33:58;;;;;;;;;;;16.20;96.60;;;;;;5047580;28;20003;-70
2023/05/12 09:36:24;;;;;;;;;;;16.20;96.70;;;;;;5047950;28;19951;-70
2023/05/12 09:39:03;;;;;;;;;;;16.30;96.60;;;;;;5047941;28;19919;-70
2023/05/12 09:41:29;;;;;;;;;;;16.30;96.50;;;;;;5083396;27;20349;-70
2023/05/12 09:43:55;;;;;;;;;;;16.40;96.50;;;;;;5047641;28;19999;-70
2023/05/12 09:46:20;;;;;;;;;;;16.40;96.40;;;;;;5046367;28;19956;-70
2023/05/12 09:48:47;;;;;;;;;;;16.50;96.50;;;;;;5046954;28;19955;-71
2023/05/12 09:51:16;;;;;;;;;;;16.50;96.30;;;;;;5047475;28;19916;-71
2023/05/12 09:53:43;;;;;;;;;;;16.50;96.30;;;;;;5029515;28;19957;-71
2023/05/12 09:56:10;;;;;;;;;;;16.60;96.20;;;;;;5047748;28;20406;-70
2023/05/12 09:58:38;;;;;;;;;;;16.70;96.10;;;;;;5047799;28;20357;-70
2023/05/12 10:01:04;;;;;;;;;;;16.80;96.10;;;;;;5047255;28;20331;-71
2023/05/12 10:03:29;;;;;;;;;;;16.80;96.00;;;;;;5046582;28;19913;-71
2023/05/12 10:05:57;;;;;;;;;;;16.90;96.10;;;;;;5046720;28;20012;-70
2023/05/12 10:08:25;;;;;;;;;;;16.90;96.00;;;;;;5046663;28;19920;-71
2023/05/12 10:10:52;;;;;;;;;;;17.00;95.90;;;;;;5046572;28;19917;-70
2023/05/12 10:13:17;;;;;;;;;;;17.00;95.90;;;;;;5046207;28;19915;-71
2023/05/12 10:15:43;;;;;;;;;;;17.10;95.80;;;;;;5046539;28;19996;-70
2023/05/12 10:18:09;;;;;;;;;;;17.10;95.80;;;;;;5039261;28;20039;-70
2023/05/12 10:20:35;;;;;;;;;;;17.10;96.00;;;;;;5043846;28;19996;-71
2023/05/12 10:23:00;;;;;;;;;;;17.20;95.90;;;;;;5046134;28;20679;-70
2023/05/12 10:25:26;;;;;;;;;;;17.20;96.00;;;;;;5045481;28;19916;-71
2023/05/12 10:27:54;;;;;;;;;;;17.30;96.00;;;;;;5046413;28;19943;-70
2023/05/12 10:30:20;;;;;;;;;;;17.30;95.90;;;;;;5046232;28;20626;-70
2023/05/12 10:32:46;;;;;;;;;;;17.30;95.80;;;;;;5045963;28;19913;-71
2023/05/12 10:35:12;;;;;;;;;;;17.40;95.80;;;;;;5045960;28;19982;-71
2023/05/12 10:37:38;;;;;;;;;;;17.40;95.80;;;;;;5046057;28;19993;-70
2023/05/12 10:40:05;;;;;;;;;;;17.40;95.70;;;;;;5045961;28;20572;-70
2023/05/12 10:42:40;;;;;;;;;;;17.40;95.80;;;;;;5045646;28;19912;-71
2023/05/12 10:45:17;;;;;;;;;;;17.40;95.80;;;;;;5046104;28;19913;-71
2023/05/12 10:47:43;;;;;;;;;;;17.40;95.90;;;;;;5045782;28;19916;-71
2023/05/12 10:50:12;;;;;;;;;;;17.40;95.90;;;;;;5045831;28;19968;-71
2023/05/12 10:52:38;;;;;;;;;;;17.40;96.00;;;;;;5045701;28;19912;-70
2023/05/12 10:55:04;;;;;;;;;;;17.40;96.10;;;;;;5045820;28;20357;-70
2023/05/12 10:57:30;;;;;;;;;;;17.40;96.10;;;;;;5045874;28;20000;-71
2023/05/12 10:59:56;;;;;;;;;;;17.40;96.10;;;;;;5044627;28;20028;-71
2023/05/12 11:02:31;;;;;;;;;;;17.50;96.00;;;;;;5045604;28;19913;-70
2023/05/12 11:04:58;;;;;;;;;;;17.50;95.90;;;;;;5045617;28;20501;-70
2023/05/12 11:07:27;;;;;;;;;;;17.50;95.90;;;;;;5045611;28;20641;-70
2023/05/12 11:09:53;;;;;;;;;;;17.60;95.90;;;;;;5045474;28;19920;-71
2023/05/12 11:12:19;;;;;;;;;;;17.60;95.90;;;;;;5045289;28;19912;-71
2023/05/12 11:14:45;;;;;;;;;;;17.70;95.90;;;;;;5045542;28;19964;-71
2023/05/12 11:17:10;;;;;;;;;;;17.70;95.80;;;;;;5045593;28;20708;-71
2023/05/12 11:19:37;;;;;;;;;;;17.70;95.80;;;;;;5036611;28;20045;-71
2023/05/12 11:22:06;;;;;;;;;;;17.80;95.70;;;;;;5044720;28;19972;-70
2023/05/12 11:24:32;;;;;;;;;;;17.80;95.70;;;;;;5045163;28;19999;-71
2023/05/12 11:26:57;;;;;;;;;;;17.80;95.60;;;;;;5045269;28;19957;-71
2023/05/12 11:29:23;;;;;;;;;;;17.90;95.60;;;;;;5045362;28;19913;-71
2023/05/12 11:31:49;;;;;;;;;;;17.90;95.50;;;;;;5027239;28;20003;-71
2023/05/12 11:34:15;;;;;;;;;;;18.00;95.50;;;;;;5045350;28;19913;-72
2023/05/12 11:36:42;;;;;;;;;;;18.10;95.40;;;;;;5045043;28;19920;-71
2023/05/12 11:39:20;;;;;;;;;;;18.10;95.40;;;;;;5045180;28;19912;-70
2023/05/12 11:41:46;;;;;;;;;;;18.20;95.30;;;;;;5043014;28;19913;-71
2023/05/12 11:44:13;;;;;;;;;;;18.20;95.30;;;;;;5044974;28;19909;-70
2023/05/12 11:46:39;;;;;;;;;;;18.30;95.30;;;;;;5045467;28;19917;-71
2023/05/12 11:49:09;;;;;;;;;;;18.30;95.20;;;;;;5044893;28;19913;-71
2023/05/12 11:51:35;;;;;;;;;;;18.40;95.20;;;;;;5044941;28;19908;-71
2023/05/12 11:54:00;;;;;;;;;;;18.40;95.20;;;;;;5044540;28;19912;-71
2023/05/12 11:56:26;;;;;;;;;;;18.40;95.10;;;;;;5044944;28;19913;-70
2023/05/12 11:58:53;;;;;;;;;;;18.50;95.00;;;;;;5044707;28;19913;-70
2023/05/12 12:01:18;;;;;;;;;;;18.50;95.00;;;;;;5044912;28;19982;-70
2023/05/12 12:03:45;;;;;;;;;;;18.50;95.00;;;;;;5044512;28;20346;-71
2023/05/12 12:06:10;;;;;;;;;;;18.60;94.90;;;;;;5044754;28;19913;-71
2023/05/12 12:08:39;;;;;;;;;;;18.70;95.00;;;;;;5044617;28;20281;-71
2023/05/12 12:11:06;;;;;;;;;;;18.60;94.80;;;;;;5044118;28;19909;-71
2023/05/12 12:13:31;;;;;;;;;;;18.70;94.80;;;;;;5034340;28;19919;-70
2023/05/12 12:15:57;;;;;;;;;;;18.70;94.90;;;;;;5044791;28;19999;-70
2023/05/12 12:18:22;;;;;;;;;;;18.70;94.90;;;;;;5036438;28;20370;-71
2023/05/12 12:20:48;;;;;;;;;;;18.70;94.80;;;;;;5044122;28;19973;-70
2023/05/12 12:23:13;;;;;;;;;;;18.70;94.80;;;;;;5045240;28;19944;-71
2023/05/12 12:25:39;;;;;;;;;;;18.80;94.90;;;;;;5044828;28;20353;-71
2023/05/12 12:28:04;;;;;;;;;;;18.80;94.80;;;;;;5045429;28;19909;-70
2023/05/12 12:30:30;;;;;;;;;;;18.80;94.80;;;;;;5045242;28;20285;-70
2023/05/12 12:32:55;;;;;;;;;;;18.80;94.80;;;;;;5045094;28;19940;-70
2023/05/12 12:35:23;;;;;;;;;;;18.80;94.80;;;;;;5045210;28;19912;-71
2023/05/12 12:37:50;;;;;;;;;;;18.80;94.90;;;;;;5045088;28;20276;-71
2023/05/12 12:40:19;;;;;;;;;;;18.80;94.80;;;;;;5045070;28;19913;-70
2023/05/12 12:42:45;;;;;;;;;;;18.80;94.90;;;;;;5025184;28;20003;-70
2023/05/12 12:45:10;;;;;;;;;;;18.80;95.00;;;;;;5024788;28;19913;-71
2023/05/12 12:47:36;;;;;;;;;;;18.80;95.00;;;;;;5029244;28;19913;-70
2023/05/12 12:50:02;;;;;;;;;;;18.80;95.00;;;;;;5044957;28;19912;-71
2023/05/12 12:52:28;;;;;;;;;;;18.80;95.00;;;;;;5045033;28;20372;-70
2023/05/12 12:54:53;;;;;;;;;;;18.80;95.00;;;;;;5044743;28;19916;-71
2023/05/12 12:57:20;;;;;;;;;;;18.90;95.30;;;;;;5044957;28;19909;-71
2023/05/12 12:59:46;;;;;;;;;;;18.90;95.00;;;;;;5044874;28;19912;-70
2023/05/12 13:02:12;;;;;;;;;;;18.90;94.90;;;;;;5044762;28;19954;-70
2023/05/12 13:04:37;;;;;;;;;;;19.00;94.70;;;;;;5060207;28;19913;-71
2023/05/12 13:07:04;;;;;;;;;;;19.10;94.60;;;;;;5044909;28;20007;-70
2023/05/12 13:09:30;;;;;;;;;;;19.20;94.60;;;;;;5113669;28;19920;-71
2023/05/12 13:11:56;;;;;;;;;;;19.20;94.40;;;;;;5044531;28;19912;-71
2023/05/12 13:14:23;;;;;;;;;;;19.20;94.50;;;;;;5044886;27;19947;-71
2023/05/12 13:16:48;;;;;;;;;;;19.30;94.40;;;;;;5044891;28;19912;-71
2023/05/12 13:19:14;;;;;;;;;;;19.30;94.50;;;;;;5037315;28;19924;-72
2023/05/12 13:21:40;;;;;;;;;;;19.30;94.50;;;;;;5044143;28;20369;-71
2023/05/12 13:24:06;;;;;;;;;;;19.30;94.40;;;;;;5047143;28;19917;-71
2023/05/12 13:26:32;;;;;;;;;;;19.40;94.50;;;;;;5048156;28;20438;-71
2023/05/12 13:28:57;;;;;;;;;;;19.40;94.40;;;;;;5048077;28;19948;-71
2023/05/12 13:31:23;;;;;;;;;;;19.40;94.40;;;;;;5048030;28;19913;-70
2023/05/12 13:33:48;;;;;;;;;;;19.40;94.40;;;;;;5047844;27;20444;-71
2023/05/12 13:36:14;;;;;;;;;;;19.30;94.40;;;;;;5047915;28;19909;-71
2023/05/12 13:38:39;;;;;;;;;;;19.30;94.60;;;;;;5047873;28;20457;-71
2023/05/12 13:41:05;;;;;;;;;;;19.30;94.60;;;;;;5100675;27;20404;-70
2023/05/12 13:43:30;;;;;;;;;;;19.30;94.80;;;;;;5047599;28;20000;-71
2023/05/12 13:45:56;;;;;;;;;;;19.30;94.80;;;;;;5048038;28;19959;-71
2023/05/12 13:48:21;;;;;;;;;;;19.20;94.80;;;;;;5047913;28;20280;-70
2023/05/12 13:50:47;;;;;;;;;;;19.30;94.90;;;;;;5047575;28;19948;-71
2023/05/12 13:53:12;;;;;;;;;;;19.20;94.90;;;;;;5047507;28;19962;-71
2023/05/12 13:55:38;;;;;;;;;;;19.20;94.70;;;;;;5047660;28;19916;-71
2023/05/12 13:58:04;;;;;;;;;;;19.20;95.00;;;;;;5047847;28;19912;-71
2023/05/12 14:00:29;;;;;;;;;;;19.20;94.10;;;;;;5047736;28;20424;-71
2023/05/12 14:02:56;;;;;;;;;;;19.20;94.90;;;;;;5047425;28;19913;-70
2023/05/12 14:05:22;;;;;;;;;;;19.20;94.20;;;;;;5029403;28;19913;-70
2023/05/12 14:07:47;;;;;;;;;;;19.20;95.00;;;;;;5047479;28;20524;-70
2023/05/12 14:10:13;;;;;;;;;;;19.10;95.00;;;;;;5116258;27;20254;-70